createdAt,value
2022-09-16T00:00:59.365Z,10.35
2022-09-16T00:05:02.448Z,11.45
2022-09-16T00:09:08.383Z,8.65
2022-09-16T00:13:13.930Z,6.73
2022-09-16T00:17:16.871Z,6.57
2022-09-16T00:21:42.465Z,6.13
2022-09-16T00:26:04.619Z,5.60
2022-09-16T00:30:47.672Z,6.78
2022-09-16T00:35:28.229Z,5.88
2022-09-16T00:39:31.782Z,5.97
2022-09-16T00:44:17.860Z,6.10
2022-09-16T00:48:30.816Z,5.50
2022-09-16T00:52:55.166Z,6.35
2022-09-16T00:57:05.275Z,5.75
2022-09-16T01:01:13.317Z,6.93
2022-09-16T01:05:28.150Z,7.55
2022-09-16T01:09:49.024Z,7.50
2022-09-16T01:14:24.022Z,8.23
2022-09-16T01:18:39.855Z,9.32
2022-09-16T01:23:19.887Z,9.60
2022-09-16T01:27:49.093Z,10.35
2022-09-16T01:32:32.510Z,9.50
2022-09-16T01:37:00.634Z,7.75
2022-09-16T01:41:19.902Z,7.82
2022-09-16T01:45:34.775Z,6.60
2022-09-16T01:49:40.546Z,6.18
2022-09-16T01:54:00.470Z,6.30
2022-09-16T01:58:11.052Z,6.47
2022-09-16T02:02:21.533Z,6.55
2022-09-16T02:06:27.646Z,6.60
2022-09-16T02:10:42.561Z,7.22
2022-09-16T02:14:50.472Z,7.40
2022-09-16T02:18:57.774Z,6.40
2022-09-16T02:23:07.358Z,7.35
2022-09-16T02:27:15.637Z,7.90
2022-09-16T02:31:23.719Z,7.10
2022-09-16T02:35:28.537Z,6.65
2022-09-16T02:39:35.664Z,8.73
2022-09-16T02:43:38.759Z,6.95
2022-09-16T02:47:57.324Z,6.60
2022-09-16T02:52:09.002Z,6.13
2022-09-16T02:56:40.646Z,6.50
2022-09-16T03:00:50.139Z,6.32
2022-09-16T03:04:53.137Z,6.05
2022-09-16T03:09:00.528Z,6.43
2022-09-16T03:13:37.505Z,6.55
2022-09-16T03:18:22.740Z,11.50
2022-09-16T03:22:34.514Z,13.40
2022-09-16T03:26:53.345Z,13.82
2022-09-16T03:30:56.319Z,13.30
2022-09-16T03:35:20.800Z,12.13
2022-09-16T03:39:23.694Z,11.23
2022-09-16T03:43:26.538Z,11.05
2022-09-16T03:47:29.368Z,12.75
2022-09-16T03:51:32.230Z,14.48
2022-09-16T03:55:35.556Z,15.50
2022-09-16T03:59:38.496Z,16.42
2022-09-16T04:03:41.804Z,17.92
2022-09-16T04:07:44.665Z,23.55
2022-09-16T04:11:49.345Z,24.60
2022-09-16T04:16:11.486Z,21.75
2022-09-16T04:20:38.828Z,22.88
2022-09-16T04:24:51.127Z,20.92
2022-09-16T04:29:01.578Z,22.60
2022-09-16T04:33:43.934Z,21.38
2022-09-16T04:38:17.339Z,24.10
2022-09-16T04:43:39.488Z,25.58
2022-09-16T04:48:35.276Z,22.85
2022-09-16T04:52:41.015Z,25.67
2022-09-16T04:57:01.487Z,26.75
2022-09-16T05:01:26.755Z,29.48
2022-09-16T05:05:29.813Z,28.90
2022-09-16T05:09:32.847Z,32.25
2022-09-16T05:13:36.181Z,30.13
2022-09-16T05:17:50.876Z,30.10
2022-09-16T05:21:58.237Z,25.90
2022-09-16T05:26:12.229Z,29.73
2022-09-16T05:30:17.450Z,28.70
2022-09-16T05:34:30.255Z,23.23
2022-09-16T05:38:33.377Z,21.17
2022-09-16T05:42:36.376Z,23.17
2022-09-16T05:46:43.589Z,23.48
2022-09-16T05:50:58.722Z,22.38
2022-09-16T05:55:04.734Z,26.02
2022-09-16T05:59:11.666Z,27.90
2022-09-16T06:03:14.715Z,27.15
2022-09-16T06:07:17.892Z,28.90
2022-09-16T06:11:21.906Z,28.48
2022-09-16T06:15:25.115Z,28.02
2022-09-16T06:19:30.266Z,29.40
2022-09-16T06:23:40.625Z,28.13
2022-09-16T06:27:46.478Z,26.77
2022-09-16T06:31:49.665Z,25.13
2022-09-16T06:35:53.726Z,26.00
2022-09-16T06:39:56.680Z,24.92
2022-09-16T06:44:26.219Z,22.58
2022-09-16T06:48:36.044Z,24.00
2022-09-16T06:52:38.948Z,22.75
2022-09-16T06:57:00.239Z,20.70
2022-09-16T07:01:11.571Z,14.55
2022-09-16T07:05:16.967Z,12.00
2022-09-16T07:14:00.148Z,11.63
2022-09-16T07:18:19.030Z,13.85
2022-09-16T07:22:54.057Z,15.85
2022-09-16T07:27:21.524Z,11.27
2022-09-16T07:31:59.678Z,10.95
2022-09-16T07:36:13.361Z,9.88
2022-09-16T07:40:47.203Z,9.95
2022-09-16T07:45:03.215Z,10.18
2022-09-16T07:49:08.621Z,18.60
2022-09-16T07:53:13.966Z,16.33
2022-09-16T07:57:17.453Z,16.10
2022-09-16T08:01:23.850Z,15.50
2022-09-16T08:05:30.127Z,10.75
2022-09-16T08:09:41.069Z,8.10
2022-09-16T08:14:00.092Z,10.00
2022-09-16T08:18:14.493Z,11.32
2022-09-16T08:22:33.792Z,11.90
2022-09-16T08:26:37.271Z,10.77
2022-09-16T08:30:40.467Z,12.77
2022-09-16T08:34:56.965Z,14.02
2022-09-16T08:39:15.729Z,12.40
2022-09-16T08:43:43.971Z,9.65
2022-09-16T08:48:27.942Z,10.82
2022-09-16T08:52:41.143Z,9.15
2022-09-16T08:56:51.689Z,7.38
2022-09-16T09:01:05.209Z,7.00
2022-09-16T09:05:42.554Z,6.22
2022-09-16T09:10:17.225Z,8.35
2022-09-16T09:14:42.879Z,5.80
2022-09-16T09:19:05.084Z,4.65
2022-09-16T09:23:46.685Z,3.22
2022-09-16T09:28:38.363Z,3.85
2022-09-16T09:33:44.410Z,3.70
2022-09-16T09:38:06.070Z,3.50
2022-09-16T09:42:44.917Z,3.17
2022-09-16T09:46:55.728Z,3.35
2022-09-16T09:51:05.726Z,2.45
2022-09-16T10:00:40.304Z,3.25
2022-09-16T10:05:16.112Z,2.90
2022-09-16T10:09:44.545Z,2.33
2022-09-16T10:14:32.807Z,2.45
2022-09-16T10:19:18.118Z,2.15
2022-09-16T10:23:43.399Z,2.17
2022-09-16T10:28:00.207Z,2.13
2022-09-16T10:38:03.908Z,2.38
2022-09-16T10:43:14.682Z,2.50
2022-09-16T10:47:25.028Z,2.78
2022-09-16T10:52:07.890Z,2.22
2022-09-16T11:01:48.249Z,1.90
2022-09-16T11:06:31.067Z,1.75
2022-09-16T11:11:12.042Z,1.90
2022-09-16T11:15:59.017Z,2.28
2022-09-16T11:20:51.844Z,1.60
2022-09-16T11:25:34.954Z,1.90
2022-09-16T11:29:58.746Z,1.98
2022-09-16T11:34:14.744Z,2.35
2022-09-16T11:38:20.382Z,1.70
2022-09-16T11:42:40.017Z,1.60
2022-09-16T11:47:01.853Z,1.85
2022-09-16T11:51:34.737Z,1.98
2022-09-16T11:56:03.738Z,1.77
2022-09-16T12:00:17.042Z,1.88
2022-09-16T12:04:41.435Z,1.45
2022-09-16T12:09:07.671Z,1.20
2022-09-16T12:13:37.201Z,1.27
2022-09-16T12:17:49.557Z,1.50
2022-09-16T12:22:08.510Z,1.13
2022-09-16T12:26:39.011Z,1.30
2022-09-16T12:30:52.238Z,1.20
2022-09-16T12:35:09.808Z,1.20
2022-09-16T12:39:22.863Z,1.45
2022-09-16T12:43:46.265Z,1.27
2022-09-16T12:48:18.932Z,1.20
2022-09-16T12:52:33.125Z,1.95
2022-09-16T12:57:08.440Z,1.15
2022-09-16T13:01:31.451Z,1.10
2022-09-16T13:05:37.147Z,1.27
2022-09-16T13:09:42.015Z,1.20
2022-09-16T13:13:49.886Z,1.05
2022-09-16T13:18:07.158Z,1.20
2022-09-16T13:22:23.242Z,0.90
2022-09-16T13:26:26.561Z,1.00
2022-09-16T13:30:35.935Z,1.20
2022-09-16T13:34:39.533Z,1.30
2022-09-16T13:38:54.441Z,0.93
2022-09-16T13:43:30.808Z,0.80
2022-09-16T13:47:40.394Z,0.90
2022-09-16T13:51:46.725Z,1.17
2022-09-16T13:55:50.712Z,0.95
2022-09-16T14:00:19.712Z,0.93
2022-09-16T14:04:50.597Z,0.98
2022-09-16T14:09:10.891Z,0.75
2022-09-16T14:13:15.856Z,0.77
2022-09-16T14:17:28.577Z,0.88
2022-09-16T14:21:35.219Z,1.50
2022-09-16T14:25:41.757Z,1.95
2022-09-16T14:30:06.660Z,1.63
2022-09-16T14:34:33.925Z,1.80
2022-09-16T14:38:56.173Z,2.00
2022-09-16T14:43:06.020Z,1.75
2022-09-16T14:47:47.474Z,2.00
2022-09-16T14:51:57.910Z,2.20
2022-09-16T14:56:00.866Z,2.58
2022-09-16T15:00:11.937Z,3.20
2022-09-16T15:04:27.685Z,2.90
2022-09-16T15:08:49.037Z,3.90
2022-09-16T15:12:55.116Z,3.13
2022-09-16T15:21:16.532Z,3.63
2022-09-16T15:25:25.494Z,3.58
2022-09-16T15:29:34.392Z,3.20
2022-09-16T15:33:41.787Z,3.35
2022-09-16T15:37:44.912Z,3.50
2022-09-16T15:41:47.761Z,3.17
2022-09-16T15:46:16.178Z,3.30
2022-09-16T15:50:21.116Z,3.10
2022-09-16T15:54:31.495Z,2.97
2022-09-16T15:58:40.148Z,3.20
2022-09-16T16:02:50.475Z,3.30
2022-09-16T16:06:58.509Z,3.15
2022-09-16T16:11:09.022Z,3.03
2022-09-16T16:15:15.748Z,2.60
2022-09-16T16:19:19.095Z,3.63
2022-09-16T16:23:21.917Z,3.20
2022-09-16T16:27:24.648Z,3.25
2022-09-16T16:31:27.728Z,3.25
2022-09-16T16:35:30.716Z,3.20
2022-09-16T16:39:34.673Z,3.05
2022-09-16T16:43:38.134Z,3.75
2022-09-16T16:47:41.841Z,5.03
2022-09-16T16:51:45.225Z,5.75
2022-09-16T16:55:56.461Z,3.80
2022-09-16T17:00:00.337Z,3.22
2022-09-16T17:04:04.124Z,3.53
2022-09-16T17:08:07.458Z,3.22
2022-09-16T17:12:10.773Z,4.18
2022-09-16T17:16:35.192Z,5.30
2022-09-16T17:20:38.759Z,5.30
2022-09-16T17:24:41.866Z,4.30
2022-09-16T17:28:55.218Z,3.70
2022-09-16T17:33:27.686Z,3.67
2022-09-16T17:37:33.826Z,3.00
2022-09-16T17:42:20.978Z,4.22
2022-09-16T17:46:41.384Z,3.10
2022-09-16T17:50:53.194Z,3.70
2022-09-16T17:55:01.674Z,3.58
2022-09-16T17:59:11.681Z,3.37
2022-09-16T18:03:17.734Z,3.80
2022-09-16T18:07:24.291Z,3.00
2022-09-16T18:11:28.292Z,3.35
2022-09-16T18:15:36.456Z,3.22
2022-09-16T18:19:40.611Z,3.40
2022-09-16T18:23:50.173Z,3.35
2022-09-16T18:27:53.156Z,3.50
2022-09-16T18:31:56.268Z,3.33
2022-09-16T18:36:01.498Z,3.28
2022-09-16T18:40:04.843Z,3.42
2022-09-16T18:44:15.556Z,3.30
2022-09-16T18:48:19.078Z,4.18
2022-09-16T18:52:22.262Z,3.22
2022-09-16T18:56:28.522Z,3.10
2022-09-16T19:00:31.304Z,3.50
2022-09-16T19:04:39.305Z,3.50
2022-09-16T19:08:42.246Z,3.28
2022-09-16T19:12:50.906Z,3.70
2022-09-16T19:17:29.579Z,3.58
2022-09-16T19:21:32.856Z,3.30
2022-09-16T19:25:35.840Z,3.75
2022-09-16T19:29:40.362Z,3.30
2022-09-16T19:34:01.742Z,3.85
2022-09-16T19:38:12.251Z,3.53
2022-09-16T19:42:38.514Z,3.20
2022-09-16T19:46:47.099Z,4.05
2022-09-16T19:50:53.406Z,3.25
2022-09-16T19:54:56.512Z,3.72
2022-09-16T19:59:01.351Z,4.22
2022-09-16T20:03:04.907Z,3.80
2022-09-16T20:07:12.763Z,3.90
2022-09-16T20:11:42.430Z,4.00
2022-09-16T20:16:03.960Z,3.95
2022-09-16T20:20:49.226Z,3.95
2022-09-16T20:25:12.159Z,4.32
2022-09-16T20:29:20.125Z,4.05
2022-09-16T20:33:23.082Z,4.72
2022-09-16T20:37:25.914Z,4.38
2022-09-16T20:41:31.464Z,4.70
2022-09-16T20:45:37.115Z,4.37
2022-09-16T20:49:40.185Z,4.70
2022-09-16T20:53:44.065Z,4.13
2022-09-16T20:57:49.075Z,4.70
2022-09-16T21:01:52.098Z,4.90
2022-09-16T21:06:00.784Z,4.97
2022-09-16T21:10:03.761Z,4.63
2022-09-16T21:14:07.660Z,4.88
2022-09-16T21:18:10.745Z,4.55
2022-09-16T21:22:13.622Z,4.68
2022-09-16T21:26:21.786Z,4.80
2022-09-16T21:30:24.972Z,5.35
2022-09-16T21:34:29.481Z,5.22
2022-09-16T21:38:33.173Z,4.60
2022-09-16T21:42:35.979Z,5.40
2022-09-16T21:46:43.076Z,5.22
2022-09-16T21:50:47.582Z,6.20
2022-09-16T21:54:50.623Z,5.30
2022-09-16T21:58:55.791Z,7.45
2022-09-16T22:03:01.204Z,6.95
2022-09-16T22:07:04.041Z,6.80
2022-09-16T22:11:10.214Z,7.90
2022-09-16T22:15:13.093Z,7.47
2022-09-16T22:19:18.529Z,8.32
2022-09-16T22:23:21.339Z,7.20
2022-09-16T22:27:24.265Z,7.30
2022-09-16T22:31:29.543Z,7.72
2022-09-16T22:35:34.220Z,6.95
2022-09-16T22:39:37.030Z,6.55
2022-09-16T22:43:41.878Z,7.35
2022-09-16T22:47:44.674Z,7.55
2022-09-16T22:51:48.836Z,6.70
2022-09-16T22:55:56.568Z,7.63
2022-09-16T22:59:59.870Z,7.70
2022-09-16T23:04:06.192Z,7.47
2022-09-16T23:08:10.603Z,6.13
2022-09-16T23:12:15.939Z,7.32
2022-09-16T23:16:22.060Z,6.97
2022-09-16T23:20:25.112Z,6.97
2022-09-16T23:24:27.925Z,8.68
2022-09-16T23:28:31.091Z,8.30
2022-09-16T23:32:33.915Z,8.73
2022-09-16T23:36:38.028Z,9.25
2022-09-16T23:40:41.127Z,8.10
2022-09-16T23:44:43.966Z,8.27
2022-09-16T23:48:47.444Z,10.35
2022-09-16T23:52:50.450Z,10.00
2022-09-16T23:56:53.283Z,8.93
